Pittsford, Vermont
Current Conditions -  °F | °C
As of 8:55 AM on Thursday 23 Oct 2014 (Local Time) from KRUT Reporting Station
Overcast Overcast  
Wind Chill: 37°   Ceiling: 1600
Heat Index: 43°   Visibility: 10mi
Dew Point: 39°   Wind: 12mph
Humidity: 87%   Direction: 330°NNW
Pressure: 29.86"   Gusts: 18mph
Location:  43.71°N, 73.03°W
Report Text: KRUT 231255Z 33010G16KT 10SM SCT009 OVC016 06/04 A2986 RMK AO1
Loading
Personal Weather Stations






























Interactive Weather Map
Tropical Storm Tracking
New forecast layout! Learn more

10-Day Weather Forecast

Advertisements
Track Severe Weather on mobile